sensor_id;sensor_type;location;lat;lon;timestamp;pressure;altitude;pressure_sealevel;temperature;humidity
11038;BME280;5572;49.540;11.932;2023-05-10T00:00:36;96263.63;;;12.01;100.00
11038;BME280;5572;49.540;11.932;2023-05-10T00:03:02;96245.31;;;12.19;100.00
11038;BME280;5572;49.540;11.932;2023-05-10T00:05:30;96232.72;;;12.23;100.00
11038;BME280;5572;49.540;11.932;2023-05-10T00:07:57;96218.72;;;12.21;100.00
11038;BME280;5572;49.540;11.932;2023-05-10T00:10:23;96215.06;;;12.26;100.00
11038;BME280;5572;49.540;11.932;2023-05-10T00:12:50;96206.75;;;12.22;100.00
11038;BME280;5572;49.540;11.932;2023-05-10T00:15:16;96206.88;;;12.17;100.00
11038;BME280;5572;49.540;11.932;2023-05-10T00:17:44;96183.47;;;12.21;100.00
11038;BME280;5572;49.540;11.932;2023-05-10T00:20:11;96157.31;;;12.17;100.00
11038;BME280;5572;49.540;11.932;2023-05-10T00:22:37;96154.72;;;12.12;100.00
11038;BME280;5572;49.540;11.932;2023-05-10T00:25:05;96141.84;;;12.17;100.00
11038;BME280;5572;49.540;11.932;2023-05-10T00:27:32;96120.69;;;12.28;100.00
11038;BME280;5572;49.540;11.932;2023-05-10T00:29:59;96119.41;;;12.25;100.00
11038;BME280;5572;49.540;11.932;2023-05-10T00:32:25;96113.06;;;12.08;100.00
11038;BME280;5572;49.540;11.932;2023-05-10T00:34:53;96104.06;;;12.12;100.00
11038;BME280;5572;49.540;11.932;2023-05-10T00:37:20;96102.44;;;12.11;100.00
11038;BME280;5572;49.540;11.932;2023-05-10T00:39:46;96093.34;;;12.07;100.00
11038;BME280;5572;49.540;11.932;2023-05-10T00:42:13;96091.97;;;11.97;100.00
11038;BME280;5572;49.540;11.932;2023-05-10T00:44:39;96070.66;;;12.03;100.00
11038;BME280;5572;49.540;11.932;2023-05-10T00:47:06;96055.72;;;12.06;100.00
11038;BME280;5572;49.540;11.932;2023-05-10T00:49:32;96048.97;;;11.95;100.00
11038;BME280;5572;49.540;11.932;2023-05-10T00:52:01;96043.56;;;12.03;100.00
11038;BME280;5572;49.540;11.932;2023-05-10T00:54:28;96029.75;;;12.13;100.00
11038;BME280;5572;49.540;11.932;2023-05-10T00:56:55;96028.53;;;11.89;100.00
11038;BME280;5572;49.540;11.932;2023-05-10T00:59:22;96022.63;;;11.87;100.00
11038;BME280;5572;49.540;11.932;2023-05-10T01:01:49;96008.53;;;11.77;100.00
11038;BME280;5572;49.540;11.932;2023-05-10T01:04:16;96010.94;;;11.78;100.00
11038;BME280;5572;49.540;11.932;2023-05-10T01:06:45;96007.94;;;11.80;100.00
11038;BME280;5572;49.540;11.932;2023-05-10T01:09:13;95994.56;;;11.83;100.00
11038;BME280;5572;49.540;11.932;2023-05-10T01:11:39;95985.78;;;11.78;100.00
11038;BME280;5572;49.540;11.932;2023-05-10T01:14:06;95985.19;;;11.89;100.00
11038;BME280;5572;49.540;11.932;2023-05-10T01:16:36;95981.66;;;11.80;100.00
11038;BME280;5572;49.540;11.932;2023-05-10T01:19:04;95979.97;;;11.93;100.00
11038;BME280;5572;49.540;11.932;2023-05-10T01:21:37;95966.91;;;11.95;100.00
11038;BME280;5572;49.540;11.932;2023-05-10T01:24:24;95959.19;;;12.18;100.00
11038;BME280;5572;49.540;11.932;2023-05-10T01:30:08;95944.00;;;12.09;100.00
11038;BME280;5572;49.540;11.932;2023-05-10T01:32:41;95929.84;;;12.12;100.00
11038;BME280;5572;49.540;11.932;2023-05-10T01:35:15;95926.19;;;12.16;100.00
11038;BME280;5572;49.540;11.932;2023-05-10T01:37:47;95931.41;;;12.04;100.00
11038;BME280;5572;49.540;11.932;2023-05-10T01:40:20;95921.31;;;12.27;100.00
11038;BME280;5572;49.540;11.932;2023-05-10T01:42:53;95919.63;;;12.09;100.00
11038;BME280;5572;49.540;11.932;2023-05-10T01:45:29;95919.66;;;12.17;100.00
11038;BME280;5572;49.540;11.932;2023-05-10T01:48:05;95917.00;;;12.26;100.00
11038;BME280;5572;49.540;11.932;2023-05-10T01:50:34;95925.06;;;12.09;100.00
11038;BME280;5572;49.540;11.932;2023-05-10T01:53:02;95922.56;;;12.29;100.00
11038;BME280;5572;49.540;11.932;2023-05-10T01:55:34;95917.94;;;12.21;100.00
11038;BME280;5572;49.540;11.932;2023-05-10T01:58:05;95932.41;;;12.08;100.00
11038;BME280;5572;49.540;11.932;2023-05-10T02:00:33;95927.44;;;12.02;100.00
11038;BME280;5572;49.540;11.932;2023-05-10T02:03:05;95932.88;;;12.10;100.00
11038;BME280;5572;49.540;11.932;2023-05-10T02:05:32;95935.97;;;11.87;100.00
11038;BME280;5572;49.540;11.932;2023-05-10T02:08:01;95945.78;;;11.75;100.00
11038;BME280;5572;49.540;11.932;2023-05-10T02:10:30;95926.44;;;11.98;100.00
11038;BME280;5572;49.540;11.932;2023-05-10T02:12:58;95942.19;;;11.88;100.00
11038;BME280;5572;49.540;11.932;2023-05-10T02:15:26;95948.03;;;11.73;100.00
11038;BME280;5572;49.540;11.932;2023-05-10T02:17:55;95941.91;;;11.98;100.00
11038;BME280;5572;49.540;11.932;2023-05-10T02:20:24;95932.41;;;12.08;100.00
11038;BME280;5572;49.540;11.932;2023-05-10T02:22:54;95941.66;;;12.16;100.00
11038;BME280;5572;49.540;11.932;2023-05-10T02:25:22;95957.44;;;11.84;100.00
11038;BME280;5572;49.540;11.932;2023-05-10T02:27:50;95946.16;;;11.90;100.00
11038;BME280;5572;49.540;11.932;2023-05-10T02:30:19;95945.16;;;11.78;100.00
11038;BME280;5572;49.540;11.932;2023-05-10T02:32:47;95957.25;;;11.72;100.00
11038;BME280;5572;49.540;11.932;2023-05-10T02:35:16;95967.66;;;11.87;100.00
11038;BME280;5572;49.540;11.932;2023-05-10T02:37:45;95967.75;;;11.73;100.00
11038;BME280;5572;49.540;11.932;2023-05-10T02:40:12;95951.63;;;11.99;100.00
11038;BME280;5572;49.540;11.932;2023-05-10T02:42:42;95955.31;;;12.02;100.00
11038;BME280;5572;49.540;11.932;2023-05-10T02:45:12;95963.31;;;12.07;100.00
11038;BME280;5572;49.540;11.932;2023-05-10T02:47:40;95964.25;;;12.03;100.00
11038;BME280;5572;49.540;11.932;2023-05-10T02:50:07;95964.41;;;12.06;100.00
11038;BME280;5572;49.540;11.932;2023-05-10T02:52:39;95959.75;;;11.99;100.00
11038;BME280;5572;49.540;11.932;2023-05-10T02:55:09;95961.63;;;11.90;100.00
11038;BME280;5572;49.540;11.932;2023-05-10T02:57:41;95956.28;;;12.06;100.00
11038;BME280;5572;49.540;11.932;2023-05-10T03:00:08;95959.25;;;11.97;100.00
11038;BME280;5572;49.540;11.932;2023-05-10T03:02:35;95961.28;;;11.83;100.00
11038;BME280;5572;49.540;11.932;2023-05-10T03:05:02;95961.63;;;11.90;100.00
11038;BME280;5572;49.540;11.932;2023-05-10T03:07:29;95963.19;;;12.12;100.00
11038;BME280;5572;49.540;11.932;2023-05-10T03:09:56;95968.94;;;11.89;100.00
11038;BME280;5572;49.540;11.932;2023-05-10T03:12:31;95979.53;;;11.69;100.00
11038;BME280;5572;49.540;11.932;2023-05-10T03:15:03;95972.47;;;11.90;100.00
11038;BME280;5572;49.540;11.932;2023-05-10T03:17:39;95975.56;;;11.75;100.00
11038;BME280;5572;49.540;11.932;2023-05-10T03:20:10;95971.72;;;11.67;100.00
11038;BME280;5572;49.540;11.932;2023-05-10T03:22:39;95965.38;;;11.72;100.00
11038;BME280;5572;49.540;11.932;2023-05-10T03:25:10;95972.69;;;11.71;100.00
11038;BME280;5572;49.540;11.932;2023-05-10T03:27:40;95982.09;;;11.74;100.00
11038;BME280;5572;49.540;11.932;2023-05-10T03:30:08;95989.47;;;11.82;100.00
11038;BME280;5572;49.540;11.932;2023-05-10T03:32:36;95984.75;;;11.96;100.00
11038;BME280;5572;49.540;11.932;2023-05-10T03:35:06;95997.19;;;11.97;100.00
11038;BME280;5572;49.540;11.932;2023-05-10T03:37:33;95998.03;;;11.75;100.00
11038;BME280;5572;49.540;11.932;2023-05-10T03:40:00;96007.47;;;11.56;100.00
11038;BME280;5572;49.540;11.932;2023-05-10T03:42:27;96018.47;;;11.59;100.00
11038;BME280;5572;49.540;11.932;2023-05-10T03:44:55;96027.22;;;11.56;100.00
11038;BME280;5572;49.540;11.932;2023-05-10T03:47:21;96024.59;;;11.51;100.00
11038;BME280;5572;49.540;11.932;2023-05-10T03:49:48;96034.34;;;11.52;100.00
11038;BME280;5572;49.540;11.932;2023-05-10T03:52:14;96033.59;;;11.60;100.00
11038;BME280;5572;49.540;11.932;2023-05-10T03:54:41;96044.38;;;11.38;100.00
11038;BME280;5572;49.540;11.932;2023-05-10T03:57:08;96042.47;;;11.52;100.00
11038;BME280;5572;49.540;11.932;2023-05-10T03:59:34;96045.63;;;11.32;100.00
11038;BME280;5572;49.540;11.932;2023-05-10T04:02:02;96046.63;;;11.23;100.00
11038;BME280;5572;49.540;11.932;2023-05-10T04:04:29;96053.22;;;11.30;100.00
11038;BME280;5572;49.540;11.932;2023-05-10T04:06:55;96021.56;;;11.66;100.00
11038;BME280;5572;49.540;11.932;2023-05-10T04:09:22;96020.28;;;11.50;100.00
11038;BME280;5572;49.540;11.932;2023-05-10T04:11:48;95999.88;;;11.44;100.00
11038;BME280;5572;49.540;11.932;2023-05-10T04:14:15;95993.28;;;11.15;100.00
11038;BME280;5572;49.540;11.932;2023-05-10T04:16:41;95972.53;;;10.89;100.00
11038;BME280;5572;49.540;11.932;2023-05-10T04:19:09;95948.19;;;10.89;100.00
11038;BME280;5572;49.540;11.932;2023-05-10T04:21:36;95929.22;;;10.80;100.00
11038;BME280;5572;49.540;11.932;2023-05-10T04:24:03;95909.19;;;10.81;100.00
11038;BME280;5572;49.540;11.932;2023-05-10T04:26:29;95878.09;;;10.92;100.00
11038;BME280;5572;49.540;11.932;2023-05-10T04:28:56;95853.88;;;11.09;100.00
11038;BME280;5572;49.540;11.932;2023-05-10T04:31:22;95841.91;;;11.32;100.00
11038;BME280;5572;49.540;11.932;2023-05-10T04:33:49;95822.66;;;11.33;100.00
11038;BME280;5572;49.540;11.932;2023-05-10T04:36:17;95815.69;;;11.41;100.00
11038;BME280;5572;49.540;11.932;2023-05-10T04:38:44;95817.41;;;11.37;100.00
11038;BME280;5572;49.540;11.932;2023-05-10T04:41:11;95821.34;;;11.01;100.00
11038;BME280;5572;49.540;11.932;2023-05-10T04:43:38;95807.16;;;10.95;100.00
11038;BME280;5572;49.540;11.932;2023-05-10T04:46:05;95778.78;;;10.84;100.00
11038;BME280;5572;49.540;11.932;2023-05-10T04:48:32;95780.16;;;10.73;100.00
11038;BME280;5572;49.540;11.932;2023-05-10T04:50:58;95742.81;;;11.06;100.00
11038;BME280;5572;49.540;11.932;2023-05-10T04:53:26;95753.63;;;11.06;100.00
11038;BME280;5572;49.540;11.932;2023-05-10T04:55:53;95743.59;;;10.98;100.00
11038;BME280;5572;49.540;11.932;2023-05-10T04:58:19;95737.75;;;11.13;100.00
11038;BME280;5572;49.540;11.932;2023-05-10T05:00:46;95713.31;;;11.43;100.00
11038;BME280;5572;49.540;11.932;2023-05-10T05:03:13;95715.38;;;11.29;100.00
11038;BME280;5572;49.540;11.932;2023-05-10T05:05:40;95710.13;;;11.32;100.00
11038;BME280;5572;49.540;11.932;2023-05-10T05:08:06;95702.88;;;11.58;100.00
11038;BME280;5572;49.540;11.932;2023-05-10T05:10:34;95708.41;;;11.45;100.00
11038;BME280;5572;49.540;11.932;2023-05-10T05:13:01;95703.84;;;11.62;100.00
11038;BME280;5572;49.540;11.932;2023-05-10T05:15:27;95699.19;;;11.37;100.00
11038;BME280;5572;49.540;11.932;2023-05-10T05:17:55;95694.88;;;11.36;100.00
11038;BME280;5572;49.540;11.932;2023-05-10T05:20:21;95687.06;;;11.43;100.00
11038;BME280;5572;49.540;11.932;2023-05-10T05:22:48;95661.91;;;11.43;100.00
11038;BME280;5572;49.540;11.932;2023-05-10T05:25:14;95665.09;;;11.36;100.00
11038;BME280;5572;49.540;11.932;2023-05-10T05:27:43;95656.50;;;11.34;100.00
11038;BME280;5572;49.540;11.932;2023-05-10T05:30:10;95674.91;;;11.15;100.00
11038;BME280;5572;49.540;11.932;2023-05-10T05:32:36;95658.41;;;11.25;100.00
11038;BME280;5572;49.540;11.932;2023-05-10T05:35:03;95651.88;;;11.35;100.00
11038;BME280;5572;49.540;11.932;2023-05-10T05:37:30;95652.91;;;11.56;100.00
11038;BME280;5572;49.540;11.932;2023-05-10T05:39:57;95651.31;;;11.63;100.00
11038;BME280;5572;49.540;11.932;2023-05-10T05:42:25;95657.38;;;11.77;100.00
11038;BME280;5572;49.540;11.932;2023-05-10T05:44:53;95661.97;;;11.68;100.00
11038;BME280;5572;49.540;11.932;2023-05-10T05:47:19;95666.28;;;11.61;100.00
11038;BME280;5572;49.540;11.932;2023-05-10T05:49:46;95615.81;;;11.65;100.00
11038;BME280;5572;49.540;11.932;2023-05-10T05:52:12;95623.41;;;11.46;100.00
11038;BME280;5572;49.540;11.932;2023-05-10T05:54:39;95619.91;;;11.45;100.00
11038;BME280;5572;49.540;11.932;2023-05-10T05:57:05;95615.34;;;11.54;100.00
11038;BME280;5572;49.540;11.932;2023-05-10T05:59:32;95623.44;;;11.54;100.00
11038;BME280;5572;49.540;11.932;2023-05-10T06:02:00;95627.06;;;11.41;100.00
11038;BME280;5572;49.540;11.932;2023-05-10T06:04:27;95618.16;;;11.49;100.00
11038;BME280;5572;49.540;11.932;2023-05-10T06:06:53;95624.50;;;11.28;100.00
11038;BME280;5572;49.540;11.932;2023-05-10T06:09:20;95619.56;;;11.30;100.00
11038;BME280;5572;49.540;11.932;2023-05-10T06:11:48;95618.00;;;11.46;100.00
11038;BME280;5572;49.540;11.932;2023-05-10T06:14:15;95606.84;;;11.39;100.00
11038;BME280;5572;49.540;11.932;2023-05-10T06:16:41;95621.28;;;11.09;100.00
11038;BME280;5572;49.540;11.932;2023-05-10T06:19:09;95624.19;;;11.21;100.00
11038;BME280;5572;49.540;11.932;2023-05-10T06:21:36;95613.31;;;11.04;100.00
11038;BME280;5572;49.540;11.932;2023-05-10T06:24:03;95607.47;;;11.36;100.00
11038;BME280;5572;49.540;11.932;2023-05-10T06:26:30;95617.28;;;10.98;100.00
11038;BME280;5572;49.540;11.932;2023-05-10T06:28:57;95619.19;;;11.06;100.00
11038;BME280;5572;49.540;11.932;2023-05-10T06:31:23;95609.38;;;11.44;100.00
11038;BME280;5572;49.540;11.932;2023-05-10T06:33:49;95619.72;;;11.16;100.00
11038;BME280;5572;49.540;11.932;2023-05-10T06:36:17;95599.69;;;11.34;100.00
11038;BME280;5572;49.540;11.932;2023-05-10T06:38:44;95610.72;;;10.91;100.00
11038;BME280;5572;49.540;11.932;2023-05-10T06:41:10;95596.50;;;11.32;100.00
11038;BME280;5572;49.540;11.932;2023-05-10T06:43:37;95593.34;;;11.47;100.00
11038;BME280;5572;49.540;11.932;2023-05-10T06:46:05;95585.22;;;11.47;100.00
11038;BME280;5572;49.540;11.932;2023-05-10T06:48:31;95571.22;;;11.62;100.00
11038;BME280;5572;49.540;11.932;2023-05-10T06:50:58;95579.47;;;11.49;100.00
11038;BME280;5572;49.540;11.932;2023-05-10T06:53:26;95599.03;;;11.20;100.00
11038;BME280;5572;49.540;11.932;2023-05-10T06:55:52;95571.06;;;11.59;100.00
11038;BME280;5572;49.540;11.932;2023-05-10T06:58:19;95575.06;;;11.70;100.00
11038;BME280;5572;49.540;11.932;2023-05-10T07:00:45;95573.59;;;11.30;100.00
11038;BME280;5572;49.540;11.932;2023-05-10T07:03:12;95578.66;;;11.23;100.00
11038;BME280;5572;49.540;11.932;2023-05-10T07:05:39;95555.28;;;11.44;100.00
11038;BME280;5572;49.540;11.932;2023-05-10T07:08:05;95546.22;;;11.57;100.00
11038;BME280;5572;49.540;11.932;2023-05-10T07:10:33;95493.44;;;11.97;100.00
11038;BME280;5572;49.540;11.932;2023-05-10T07:12:59;95493.91;;;12.07;100.00
11038;BME280;5572;49.540;11.932;2023-05-10T07:15:26;95485.09;;;12.18;100.00
11038;BME280;5572;49.540;11.932;2023-05-10T07:17:53;95488.63;;;12.10;100.00
11038;BME280;5572;49.540;11.932;2023-05-10T07:20:19;95513.91;;;11.69;100.00
11038;BME280;5572;49.540;11.932;2023-05-10T07:22:46;95491.81;;;12.12;100.00
11038;BME280;5572;49.540;11.932;2023-05-10T07:25:12;95498.06;;;12.33;100.00
11038;BME280;5572;49.540;11.932;2023-05-10T07:27:40;95524.53;;;11.82;100.00
11038;BME280;5572;49.540;11.932;2023-05-10T07:30:08;95509.34;;;12.06;100.00
11038;BME280;5572;49.540;11.932;2023-05-10T07:32:34;95501.06;;;12.11;100.00
11038;BME280;5572;49.540;11.932;2023-05-10T07:35:01;95481.38;;;12.60;100.00
11038;BME280;5572;49.540;11.932;2023-05-10T07:37:28;95475.59;;;12.90;100.00
11038;BME280;5572;49.540;11.932;2023-05-10T07:39:55;95494.34;;;12.75;100.00
11038;BME280;5572;49.540;11.932;2023-05-10T07:42:21;95469.00;;;13.41;100.00
11038;BME280;5572;49.540;11.932;2023-05-10T07:44:49;95520.16;;;12.52;100.00
11038;BME280;5572;49.540;11.932;2023-05-10T07:47:16;95502.13;;;12.56;100.00
11038;BME280;5572;49.540;11.932;2023-05-10T07:49:42;95499.56;;;12.88;100.00
11038;BME280;5572;49.540;11.932;2023-05-10T07:52:09;95506.47;;;12.78;100.00
11038;BME280;5572;49.540;11.932;2023-05-10T07:54:36;95505.91;;;13.13;100.00
11038;BME280;5572;49.540;11.932;2023-05-10T07:57:03;95505.34;;;13.07;100.00
11038;BME280;5572;49.540;11.932;2023-05-10T07:59:30;95507.41;;;13.31;100.00
11038;BME280;5572;49.540;11.932;2023-05-10T08:01:57;95526.09;;;13.03;100.00
11038;BME280;5572;49.540;11.932;2023-05-10T08:04:24;95526.38;;;13.51;100.00
11038;BME280;5572;49.540;11.932;2023-05-10T08:06:50;95538.53;;;13.86;100.00
11038;BME280;5572;49.540;11.932;2023-05-10T08:09:17;95555.38;;;14.12;100.00
11038;BME280;5572;49.540;11.932;2023-05-10T08:11:48;95569.72;;;14.33;100.00
11038;BME280;5572;49.540;11.932;2023-05-10T08:14:15;95566.22;;;14.44;100.00
11038;BME280;5572;49.540;11.932;2023-05-10T08:16:41;95554.25;;;14.81;100.00
11038;BME280;5572;49.540;11.932;2023-05-10T08:19:09;95531.06;;;15.23;100.00
11038;BME280;5572;49.540;11.932;2023-05-10T08:21:36;95554.47;;;14.52;100.00
11038;BME280;5572;49.540;11.932;2023-05-10T08:24:02;95521.94;;;14.79;100.00
11038;BME280;5572;49.540;11.932;2023-05-10T08:26:30;95523.53;;;14.80;100.00
11038;BME280;5572;49.540;11.932;2023-05-10T08:28:57;95509.94;;;14.57;100.00
11038;BME280;5572;49.540;11.932;2023-05-10T08:31:23;95514.00;;;14.06;100.00
11038;BME280;5572;49.540;11.932;2023-05-10T08:33:50;95493.94;;;14.55;100.00
11038;BME280;5572;49.540;11.932;2023-05-10T08:36:19;95498.25;;;14.32;100.00
11038;BME280;5572;49.540;11.932;2023-05-10T08:38:46;95466.75;;;14.31;100.00
11038;BME280;5572;49.540;11.932;2023-05-10T08:41:13;95467.88;;;14.30;100.00
11038;BME280;5572;49.540;11.932;2023-05-10T08:43:40;95481.88;;;14.08;100.00
11038;BME280;5572;49.540;11.932;2023-05-10T13:08:33;96043.88;;;16.52;100.00
11038;BME280;5572;49.540;11.932;2023-05-10T13:11:09;96034.34;;;17.06;100.00
11038;BME280;5572;49.540;11.932;2023-05-10T14:50:03;95501.03;;;15.70;100.00
11038;BME280;5572;49.540;11.932;2023-05-10T14:52:30;95499.97;;;15.75;100.00
11038;BME280;5572;49.540;11.932;2023-05-10T14:54:56;95509.97;;;15.71;100.00
11038;BME280;5572;49.540;11.932;2023-05-10T14:57:24;95511.44;;;15.80;100.00
11038;BME280;5572;49.540;11.932;2023-05-10T14:59:50;95512.34;;;15.72;100.00
11038;BME280;5572;49.540;11.932;2023-05-10T15:02:17;95523.38;;;15.76;100.00
11038;BME280;5572;49.540;11.932;2023-05-10T15:04:43;95512.06;;;15.89;100.00
11038;BME280;5572;49.540;11.932;2023-05-10T15:07:11;95504.16;;;16.00;100.00
11038;BME280;5572;49.540;11.932;2023-05-10T15:09:40;95521.06;;;15.78;100.00
11038;BME280;5572;49.540;11.932;2023-05-10T15:12:06;95517.31;;;15.82;100.00
11038;BME280;5572;49.540;11.932;2023-05-10T15:14:33;95509.53;;;15.96;100.00
11038;BME280;5572;49.540;11.932;2023-05-10T15:17:01;95503.03;;;16.01;100.00
11038;BME280;5572;49.540;11.932;2023-05-10T15:19:28;95519.84;;;16.03;100.00
11038;BME280;5572;49.540;11.932;2023-05-10T15:21:55;95500.59;;;16.11;100.00
11038;BME280;5572;49.540;11.932;2023-05-10T15:24:22;95511.06;;;15.82;100.00
11038;BME280;5572;49.540;11.932;2023-05-10T15:26:49;95518.94;;;15.20;100.00
11038;BME280;5572;49.540;11.932;2023-05-10T15:29:15;95520.69;;;15.01;100.00
11038;BME280;5572;49.540;11.932;2023-05-10T15:31:45;95513.78;;;14.79;100.00
11038;BME280;5572;49.540;11.932;2023-05-10T15:34:11;95497.88;;;15.05;100.00
11038;BME280;5572;49.540;11.932;2023-05-10T15:36:38;95500.50;;;15.02;100.00
11038;BME280;5572;49.540;11.932;2023-05-10T15:39:04;95517.63;;;14.78;100.00
11038;BME280;5572;49.540;11.932;2023-05-10T15:41:32;95544.50;;;14.68;100.00
11038;BME280;5572;49.540;11.932;2023-05-10T15:43:58;95530.56;;;14.81;100.00
11038;BME280;5572;49.540;11.932;2023-05-10T15:46:26;95553.44;;;14.80;100.00
11038;BME280;5572;49.540;11.932;2023-05-10T15:48:52;95581.66;;;14.52;100.00
11038;BME280;5572;49.540;11.932;2023-05-10T15:51:19;95575.81;;;15.10;100.00
11038;BME280;5572;49.540;11.932;2023-05-10T15:53:46;95580.31;;;15.06;100.00
11038;BME280;5572;49.540;11.932;2023-05-10T15:56:13;95602.97;;;14.74;100.00
11038;BME280;5572;49.540;11.932;2023-05-10T15:58:41;95604.81;;;14.94;100.00
11038;BME280;5572;49.540;11.932;2023-05-10T16:01:09;95614.44;;;14.79;100.00
11038;BME280;5572;49.540;11.932;2023-05-10T16:03:37;95619.44;;;14.89;100.00
11038;BME280;5572;49.540;11.932;2023-05-10T16:06:04;95606.06;;;15.08;100.00
11038;BME280;5572;49.540;11.932;2023-05-10T16:08:31;95617.34;;;15.31;100.00
11038;BME280;5572;49.540;11.932;2023-05-10T16:10:58;95647.66;;;14.85;100.00
11038;BME280;5572;49.540;11.932;2023-05-10T16:13:25;95652.44;;;14.88;100.00
11038;BME280;5572;49.540;11.932;2023-05-10T16:15:52;95643.00;;;14.73;100.00
11038;BME280;5572;49.540;11.932;2023-05-10T16:18:19;95646.84;;;15.41;100.00
11038;BME280;5572;49.540;11.932;2023-05-10T16:20:45;95655.66;;;15.26;100.00
11038;BME280;5572;49.540;11.932;2023-05-10T16:23:12;95665.84;;;15.17;100.00
11038;BME280;5572;49.540;11.932;2023-05-10T16:25:39;95652.44;;;15.83;100.00
11038;BME280;5572;49.540;11.932;2023-05-10T16:28:06;95664.91;;;15.84;100.00
11038;BME280;5572;49.540;11.932;2023-05-10T16:30:32;95698.59;;;15.08;100.00
11038;BME280;5572;49.540;11.932;2023-05-10T16:33:00;95683.09;;;15.09;100.00
11038;BME280;5572;49.540;11.932;2023-05-10T16:35:27;95678.78;;;15.20;100.00
11038;BME280;5572;49.540;11.932;2023-05-10T16:37:55;95681.00;;;15.26;100.00
11038;BME280;5572;49.540;11.932;2023-05-10T16:40:21;95691.75;;;15.35;100.00
11038;BME280;5572;49.540;11.932;2023-05-10T16:42:49;95696.84;;;15.48;100.00
11038;BME280;5572;49.540;11.932;2023-05-10T16:45:16;95692.88;;;15.46;100.00
11038;BME280;5572;49.540;11.932;2023-05-10T16:47:42;95714.34;;;15.35;100.00
11038;BME280;5572;49.540;11.932;2023-05-10T16:50:11;95751.34;;;15.04;100.00
11038;BME280;5572;49.540;11.932;2023-05-10T16:52:39;95763.25;;;14.99;100.00
11038;BME280;5572;49.540;11.932;2023-05-10T16:55:06;95772.41;;;14.95;100.00
11038;BME280;5572;49.540;11.932;2023-05-10T16:57:32;95783.09;;;15.00;100.00
11038;BME280;5572;49.540;11.932;2023-05-10T16:59:59;95787.50;;;14.92;100.00
11038;BME280;5572;49.540;11.932;2023-05-10T17:02:26;95752.53;;;14.82;100.00
11038;BME280;5572;49.540;11.932;2023-05-10T17:04:52;95755.38;;;14.86;100.00
11038;BME280;5572;49.540;11.932;2023-05-10T17:07:21;95747.44;;;14.81;100.00
11038;BME280;5572;49.540;11.932;2023-05-10T17:09:48;95759.19;;;14.73;100.00
11038;BME280;5572;49.540;11.932;2023-05-10T17:12:15;95763.91;;;14.64;100.00
11038;BME280;5572;49.540;11.932;2023-05-10T17:14:41;95769.34;;;14.64;100.00
11038;BME280;5572;49.540;11.932;2023-05-10T17:17:08;95776.78;;;14.55;100.00
11038;BME280;5572;49.540;11.932;2023-05-10T17:19:35;95782.75;;;14.49;100.00
11038;BME280;5572;49.540;11.932;2023-05-10T17:22:02;95784.22;;;14.46;100.00
11038;BME280;5572;49.540;11.932;2023-05-10T17:24:30;95786.59;;;14.48;100.00
11038;BME280;5572;49.540;11.932;2023-05-10T17:26:57;95793.59;;;14.37;100.00
11038;BME280;5572;49.540;11.932;2023-05-10T17:29:25;95795.38;;;14.33;100.00
11038;BME280;5572;49.540;11.932;2023-05-10T17:31:52;95798.81;;;14.21;100.00
11038;BME280;5572;49.540;11.932;2023-05-10T17:34:19;95804.69;;;14.23;100.00
11038;BME280;5572;49.540;11.932;2023-05-10T17:36:46;95821.59;;;14.00;100.00
11038;BME280;5572;49.540;11.932;2023-05-10T17:39:13;95834.94;;;13.84;100.00
11038;BME280;5572;49.540;11.932;2023-05-10T17:41:41;95837.25;;;13.74;100.00
11038;BME280;5572;49.540;11.932;2023-05-10T17:44:07;95847.84;;;13.67;100.00
11038;BME280;5572;49.540;11.932;2023-05-10T17:46:34;95854.03;;;13.68;100.00
11038;BME280;5572;49.540;11.932;2023-05-10T17:49:01;95861.28;;;13.55;100.00
11038;BME280;5572;49.540;11.932;2023-05-10T17:51:27;95858.25;;;13.57;100.00
11038;BME280;5572;49.540;11.932;2023-05-10T17:53:54;95869.63;;;13.42;100.00
11038;BME280;5572;49.540;11.932;2023-05-10T17:56:20;95876.97;;;13.50;100.00
11038;BME280;5572;49.540;11.932;2023-05-10T17:58:48;95885.41;;;13.57;100.00
11038;BME280;5572;49.540;11.932;2023-05-10T18:01:15;95879.00;;;13.53;100.00
11038;BME280;5572;49.540;11.932;2023-05-10T18:03:42;95882.59;;;13.36;100.00
11038;BME280;5572;49.540;11.932;2023-05-10T18:06:08;95885.75;;;13.47;100.00
11038;BME280;5572;49.540;11.932;2023-05-10T18:08:35;95889.09;;;13.44;100.00
11038;BME280;5572;49.540;11.932;2023-05-10T18:11:01;95894.22;;;13.37;100.00
11038;BME280;5572;49.540;11.932;2023-05-10T18:13:28;95889.28;;;13.39;100.00
11038;BME280;5572;49.540;11.932;2023-05-10T18:15:56;95888.94;;;13.40;100.00
11038;BME280;5572;49.540;11.932;2023-05-10T18:18:22;95885.31;;;13.36;100.00
11038;BME280;5572;49.540;11.932;2023-05-10T18:20:49;95880.31;;;13.38;100.00
11038;BME280;5572;49.540;11.932;2023-05-10T18:23:20;95898.09;;;13.27;100.00
11038;BME280;5572;49.540;11.932;2023-05-10T18:25:47;95887.53;;;13.34;100.00
11038;BME280;5572;49.540;11.932;2023-05-10T18:28:13;95897.75;;;13.37;100.00
11038;BME280;5572;49.540;11.932;2023-05-10T18:30:40;95894.84;;;13.42;100.00
11038;BME280;5572;49.540;11.932;2023-05-10T18:33:08;95900.28;;;13.34;100.00
11038;BME280;5572;49.540;11.932;2023-05-10T18:35:36;95910.69;;;13.23;100.00
11038;BME280;5572;49.540;11.932;2023-05-10T18:38:04;95911.34;;;13.29;100.00
11038;BME280;5572;49.540;11.932;2023-05-10T18:40:31;95910.03;;;13.35;100.00
11038;BME280;5572;49.540;11.932;2023-05-10T18:42:57;95918.84;;;13.23;100.00
11038;BME280;5572;49.540;11.932;2023-05-10T18:45:24;95919.66;;;13.15;100.00
11038;BME280;5572;49.540;11.932;2023-05-10T18:47:50;95918.06;;;13.14;100.00
11038;BME280;5572;49.540;11.932;2023-05-10T18:50:18;95928.91;;;13.14;100.00
11038;BME280;5572;49.540;11.932;2023-05-10T18:52:45;95929.06;;;13.09;100.00